Time;durP1;ratioP1;P1;durP2;ratioP2;P2;SDS_P1;SDS_P2;PMS_P1;PMS_P2;Temp;Humidity;BMP_temperature;BMP_pressure;BME280_temperature;BME280_humidity;BME280_pressure;Samples;Min_cycle;Max_cycle;Signal;HPM_P1;HPM_P2
2022/03/01 00:01:56;;;;;;;7.40;2.70;;;;;2.22;98491.20;;;;110586;1251;41156;-66
2022/03/01 00:04:27;;;;;;;5.80;2.60;;;;;2.20;98491.00;;;;110707;1251;41182;-66
2022/03/01 00:06:56;;;;;;;9.70;2.40;;;;;2.28;98495.60;;;;110765;1250;41248;-67
2022/03/01 00:09:26;;;;;;;5.10;2.20;;;;;2.30;98490.40;;;;110689;1251;41875;-65
2022/03/01 00:11:55;;;;;;;6.80;2.70;;;;;2.30;98492.40;;;;110938;1249;41798;-65
2022/03/01 00:14:24;;;;;;;6.10;2.30;;;;;2.30;98494.60;;;;110738;1251;42449;-66
2022/03/01 00:16:55;;;;;;;5.20;2.30;;;;;2.34;98493.80;;;;110531;1250;42235;-65
2022/03/01 00:19:27;;;;;;;6.70;2.30;;;;;2.40;98489.20;;;;110804;1250;41383;-66
2022/03/01 00:21:58;;;;;;;5.80;2.20;;;;;2.40;98488.80;;;;110698;1250;41263;-67
2022/03/01 00:24:27;;;;;;;5.60;2.10;;;;;2.40;98487.40;;;;110732;1248;41253;-66
2022/03/01 00:26:56;;;;;;;4.20;2.10;;;;;2.40;98492.00;;;;110704;1250;41134;-66
2022/03/01 00:29:26;;;;;;;5.70;2.40;;;;;2.50;98487.80;;;;110734;1250;41364;-67
2022/03/01 00:31:56;;;;;;;5.50;2.20;;;;;2.50;98487.40;;;;110665;1251;41246;-67
2022/03/01 00:34:26;;;;;;;5.80;2.10;;;;;2.50;98483.60;;;;110695;1250;41160;-64
2022/03/01 00:36:55;;;;;;;5.70;2.00;;;;;2.50;98485.40;;;;110625;1250;41520;-65
2022/03/01 00:39:25;;;;;;;4.70;2.20;;;;;2.52;98484.00;;;;110760;1250;41154;-66
2022/03/01 00:41:54;;;;;;;4.50;2.00;;;;;2.52;98479.00;;;;110795;1251;42327;-66
2022/03/01 00:44:24;;;;;;;5.20;2.20;;;;;2.60;98479.80;;;;110766;1251;41847;-64
2022/03/01 00:46:54;;;;;;;5.30;2.10;;;;;2.52;98476.80;;;;110696;1250;42256;-66
2022/03/01 00:49:24;;;;;;;5.10;2.00;;;;;2.60;98472.80;;;;110550;1250;41288;-66
2022/03/01 00:51:54;;;;;;;3.90;1.90;;;;;2.60;98473.20;;;;110820;1250;41264;-66
2022/03/01 00:54:24;;;;;;;4.90;2.10;;;;;2.60;98473.60;;;;110772;1250;41589;-66
2022/03/01 00:56:53;;;;;;;3.70;2.00;;;;;2.60;98473.60;;;;110619;1250;41267;-67
2022/03/01 00:59:23;;;;;;;3.60;1.90;;;;;2.60;98472.80;;;;110620;1251;41490;-66
2022/03/01 01:01:53;;;;;;;6.10;2.10;;;;;2.60;98476.80;;;;110874;1250;41160;-66
2022/03/01 01:04:23;;;;;;;4.20;2.20;;;;;2.60;98470.40;;;;110852;1250;41265;-63
2022/03/01 01:06:53;;;;;;;4.90;2.20;;;;;2.60;98471.20;;;;110753;1251;41163;-66
2022/03/01 01:09:23;;;;;;;5.50;2.20;;;;;2.60;98471.00;;;;110783;1252;41439;-66
2022/03/01 01:11:53;;;;;;;10.00;2.00;;;;;2.60;98469.60;;;;110800;1249;41981;-65
2022/03/01 01:14:23;;;;;;;5.20;2.40;;;;;2.60;98470.80;;;;110733;1250;41152;-66
2022/03/01 01:16:52;;;;;;;4.30;2.00;;;;;2.60;98465.20;;;;110762;1250;41265;-66
2022/03/01 01:19:22;;;;;;;5.40;2.20;;;;;2.60;98471.60;;;;110748;1250;41372;-66
2022/03/01 01:24:40;;;;;;;6.00;2.30;;;;;2.60;98465.80;;;;110814;1250;41261;-66
2022/03/01 01:27:11;;;;;;;5.30;2.10;;;;;2.60;98465.40;;;;110869;1250;41170;-67
2022/03/01 01:29:40;;;;;;;7.30;2.40;;;;;2.60;98461.00;;;;110671;1251;41908;-68
2022/03/01 01:32:10;;;;;;;5.10;2.30;;;;;2.60;98462.40;;;;110670;1251;41151;-65
2022/03/01 01:34:40;;;;;;;6.30;2.40;;;;;2.60;98451.60;;;;110649;1250;41724;-67
2022/03/01 01:37:11;;;;;;;5.60;2.50;;;;;2.60;98456.40;;;;110628;1252;41625;-67
2022/03/01 01:39:41;;;;;;;6.30;2.10;;;;;2.60;98450.80;;;;110720;1250;42108;-65
2022/03/01 01:42:12;;;;;;;4.80;2.10;;;;;2.60;98447.60;;;;110612;1252;41626;-66
2022/03/01 01:44:44;;;;;;;6.90;2.50;;;;;2.60;98447.00;;;;110917;1250;41379;-69
2022/03/01 01:47:35;;;;;;;6.10;2.50;;;;;2.52;98448.20;;;;110776;1250;41261;-66
2022/03/01 01:50:07;;;;;;;7.10;2.80;;;;;2.50;98447.80;;;;110782;1250;41570;-66
2022/03/01 01:52:37;;;;;;;6.30;2.70;;;;;2.50;98452.20;;;;110844;1250;41151;-65
2022/03/01 01:55:07;;;;;;;8.40;3.00;;;;;2.50;98451.40;;;;110634;1251;41711;-64
2022/03/01 01:57:37;;;;;;;7.80;3.40;;;;;2.40;98451.00;;;;110777;1250;41206;-66
2022/03/01 02:00:09;;;;;;;10.30;3.50;;;;;2.40;98447.80;;;;110776;1251;41260;-66
2022/03/01 02:02:42;;;;;;;8.40;3.30;;;;;2.38;98445.80;;;;110591;1251;41148;-66
2022/03/01 02:05:13;;;;;;;8.50;3.30;;;;;2.40;98442.40;;;;110694;1250;41133;-66
2022/03/01 02:07:48;;;;;;;9.20;3.30;;;;;2.40;98446.60;;;;110566;1252;41961;-65
2022/03/01 02:10:17;;;;;;;9.50;3.40;;;;;2.40;98442.60;;;;110675;1251;41269;-66
2022/03/01 02:12:48;;;;;;;9.30;3.70;;;;;2.40;98445.40;;;;110746;1249;41739;-66
2022/03/01 02:15:18;;;;;;;9.90;3.50;;;;;2.40;98443.20;;;;110808;1250;41152;-65
2022/03/01 02:17:49;;;;;;;8.80;3.50;;;;;2.30;98443.00;;;;110893;1250;41208;-66
2022/03/01 02:20:21;;;;;;;7.60;3.20;;;;;2.30;98445.60;;;;110629;1251;42705;-66
2022/03/01 02:22:55;;;;;;;7.70;3.20;;;;;2.30;98441.40;;;;110928;1250;41965;-65
2022/03/01 02:25:25;;;;;;;8.00;3.40;;;;;2.30;98447.20;;;;110796;1250;41268;-66
2022/03/01 02:27:56;;;;;;;9.60;3.50;;;;;2.20;98445.20;;;;110822;1248;41273;-67
2022/03/01 02:30:26;;;;;;;7.20;3.40;;;;;2.20;98448.00;;;;110960;1250;41128;-66
2022/03/01 02:32:56;;;;;;;8.50;3.10;;;;;2.20;98450.40;;;;110839;1248;41140;-67
2022/03/01 02:35:26;;;;;;;8.40;3.20;;;;;2.20;98449.20;;;;110748;1250;42370;-66
2022/03/01 02:37:57;;;;;;;7.70;3.40;;;;;2.20;98452.00;;;;110904;1250;41907;-63
2022/03/01 02:40:28;;;;;;;7.10;3.10;;;;;2.20;98447.60;;;;110528;1251;41267;-65
2022/03/01 02:42:59;;;;;;;8.20;3.50;;;;;2.10;98443.60;;;;110619;1250;41528;-65
2022/03/01 02:45:29;;;;;;;8.00;3.10;;;;;2.10;98440.20;;;;110503;1250;452848;-66
2022/03/01 02:47:59;;;;;;;7.50;2.60;;;;;2.04;98442.00;;;;110722;1250;41169;-66
2022/03/01 02:50:29;;;;;;;8.10;3.10;;;;;2.00;98445.20;;;;110732;1250;41630;-66
2022/03/01 02:53:01;;;;;;;9.60;3.20;;;;;2.00;98444.60;;;;110842;1251;41159;-65
2022/03/01 02:55:32;;;;;;;8.50;3.10;;;;;2.00;98441.20;;;;110596;1252;41154;-66
2022/03/01 02:58:02;;;;;;;9.40;3.20;;;;;2.00;98441.40;;;;110580;1252;41810;-67
2022/03/01 03:00:32;;;;;;;9.00;3.50;;;;;2.04;98442.60;;;;110811;1250;41946;-66
2022/03/01 03:03:03;;;;;;;8.80;3.00;;;;;2.00;98448.00;;;;110643;1251;42058;-67
2022/03/01 03:05:34;;;;;;;7.00;2.90;;;;;2.00;98444.00;;;;110579;1250;42061;-66
2022/03/01 03:08:04;;;;;;;7.80;3.00;;;;;2.00;98438.60;;;;110782;1250;41554;-66
2022/03/01 03:10:34;;;;;;;7.90;3.00;;;;;2.00;98442.80;;;;110759;1250;41507;-64
2022/03/01 03:13:06;;;;;;;7.80;2.90;;;;;2.00;98442.40;;;;110937;1250;42432;-64
2022/03/01 03:15:37;;;;;;;7.50;2.80;;;;;2.00;98440.20;;;;110821;1250;41263;-65
2022/03/01 03:18:08;;;;;;;8.30;3.10;;;;;2.00;98443.00;;;;110803;1252;41604;-66
2022/03/01 03:20:40;;;;;;;7.20;2.80;;;;;2.00;98443.00;;;;110565;1251;42030;-66
2022/03/01 03:23:11;;;;;;;5.70;2.30;;;;;2.00;98441.40;;;;110882;1250;42266;-66
2022/03/01 03:25:41;;;;;;;7.10;2.70;;;;;2.00;98443.40;;;;110780;1251;41293;-66
2022/03/01 03:28:11;;;;;;;7.40;2.80;;;;;2.00;98437.00;;;;110603;1252;41177;-66
2022/03/01 03:30:42;;;;;;;;;;;;;2.00;98439.80;;;;110758;1250;41151;-66
2022/03/01 03:33:12;;;;;;;7.30;2.70;;;;;1.92;98442.00;;;;110616;1250;41142;-66
2022/03/01 03:35:43;;;;;;;8.00;2.70;;;;;1.90;98440.00;;;;110831;1250;41589;-67
2022/03/01 03:38:13;;;;;;;;;;;;;1.90;98436.40;;;;110767;1251;41508;-66
2022/03/01 03:40:44;;;;;;;7.10;2.70;;;;;1.90;98434.40;;;;110690;1251;41560;-67
2022/03/01 03:43:14;;;;;;;6.30;2.50;;;;;1.90;98429.60;;;;110786;1251;41895;-68
2022/03/01 03:45:45;;;;;;;6.20;2.50;;;;;1.90;98424.80;;;;110803;1251;41520;-66
2022/03/01 03:48:16;;;;;;;7.00;2.90;;;;;1.90;98433.80;;;;110612;1250;41782;-66
2022/03/01 03:50:46;;;;;;;4.90;2.40;;;;;1.90;98430.80;;;;110836;1250;41136;-67
2022/03/01 03:53:16;;;;;;;6.90;2.90;;;;;1.90;98433.40;;;;110637;1251;41615;-66
2022/03/01 03:55:46;;;;;;;7.80;3.00;;;;;1.80;98438.60;;;;110735;1250;42386;-65
2022/03/01 03:58:18;;;;;;;7.20;2.70;;;;;1.70;98436.40;;;;110934;1251;42002;-65
2022/03/01 04:00:53;;;;;;;7.00;2.90;;;;;1.70;98436.00;;;;110734;1250;41142;-66
2022/03/01 04:03:24;;;;;;;7.10;2.90;;;;;1.70;98437.80;;;;110528;1251;41170;-66
2022/03/01 04:05:56;;;;;;;5.60;2.40;;;;;1.70;98438.60;;;;110569;1250;41411;-66
2022/03/01 04:08:27;;;;;;;6.40;2.50;;;;;1.70;98432.80;;;;110503;1251;41268;-65
2022/03/01 04:10:58;;;;;;;5.70;2.60;;;;;1.70;98429.80;;;;110644;1250;42316;-64
2022/03/01 04:13:29;;;;;;;;;;;;;1.70;98430.20;;;;110711;1250;41152;-65
2022/03/01 04:16:04;;;;;;;6.30;2.70;;;;;1.70;98427.40;;;;110878;1250;41720;-67
2022/03/01 04:18:35;;;;;;;7.10;2.60;;;;;1.64;98424.00;;;;110466;1250;41906;-66
2022/03/01 04:21:06;;;;;;;6.90;2.50;;;;;1.68;98427.40;;;;110887;1250;41251;-65
2022/03/01 04:23:38;;;;;;;6.80;2.70;;;;;1.68;98427.60;;;;110538;1251;41158;-66
2022/03/01 04:26:09;;;;;;;5.60;2.50;;;;;1.64;98423.80;;;;110851;1250;41147;-64
2022/03/01 04:28:41;;;;;;;7.10;2.20;;;;;1.62;98419.60;;;;110556;1251;41150;-65
2022/03/01 04:31:15;;;;;;;5.80;2.30;;;;;1.68;98419.40;;;;110553;1253;41272;-64
2022/03/01 04:33:48;;;;;;;4.80;2.40;;;;;1.64;98415.80;;;;110534;1251;41473;-66
2022/03/01 04:36:20;;;;;;;6.30;2.60;;;;;1.70;98418.20;;;;110808;1250;41192;-69
2022/03/01 04:38:55;;;;;;;7.30;2.70;;;;;1.60;98418.20;;;;110590;1250;41272;-66
2022/03/01 04:41:29;;;;;;;5.60;2.40;;;;;1.60;98416.40;;;;110462;1250;41320;-65
2022/03/01 04:43:59;;;;;;;6.70;2.60;;;;;1.70;98414.40;;;;110946;1250;41119;-66
2022/03/01 04:46:29;;;;;;;7.00;2.80;;;;;1.64;98414.80;;;;110862;1250;41648;-66
2022/03/01 04:48:58;;;;;;;5.50;2.20;;;;;1.60;98411.40;;;;110772;1250;42448;-63
2022/03/01 04:51:28;;;;;;;8.60;2.80;;;;;1.66;98410.20;;;;110948;1250;42378;-64
2022/03/01 04:53:58;;;;;;;5.90;2.40;;;;;1.66;98402.20;;;;110553;1250;42227;-65
2022/03/01 04:56:28;;;;;;;7.20;2.30;;;;;1.60;98407.20;;;;110781;1250;41601;-63
2022/03/01 04:58:58;;;;;;;7.40;2.50;;;;;1.66;98409.20;;;;110814;1250;41732;-66
2022/03/01 05:01:27;;;;;;;6.50;2.40;;;;;1.64;98408.80;;;;110816;1248;41615;-66
2022/03/01 05:03:57;;;;;;;5.80;2.20;;;;;1.70;98409.00;;;;110753;1250;41152;-66
2022/03/01 05:06:26;;;;;;;7.80;2.70;;;;;1.70;98410.80;;;;110878;1250;41254;-65
2022/03/01 05:08:56;;;;;;;6.40;2.20;;;;;1.70;98404.00;;;;110949;1250;42144;-67
2022/03/01 05:11:25;;;;;;;5.30;2.30;;;;;1.70;98402.80;;;;110560;1250;41599;-65
2022/03/01 05:13:55;;;;;;;6.70;2.40;;;;;1.70;98403.80;;;;110831;1250;41313;-65
2022/03/01 05:16:24;;;;;;;4.90;2.20;;;;;1.70;98403.20;;;;110710;1250;41624;-65
2022/03/01 05:18:54;;;;;;;5.80;2.30;;;;;1.70;98401.20;;;;110691;1252;42666;-65
2022/03/01 05:21:23;;;;;;;6.40;2.50;;;;;1.76;98397.80;;;;110869;1249;42495;-65
2022/03/01 05:23:53;;;;;;;7.20;2.30;;;;;1.80;98399.00;;;;110846;1250;41606;-65
2022/03/01 05:26:24;;;;;;;4.70;2.10;;;;;1.80;98396.60;;;;110784;1250;42089;-66
2022/03/01 05:28:53;;;;;;;6.90;2.50;;;;;1.80;98391.40;;;;110689;1251;41215;-65
2022/03/01 05:31:27;;;;;;;5.40;2.20;;;;;1.84;98390.80;;;;110520;1251;41207;-65
2022/03/01 05:33:56;;;;;;;5.20;2.40;;;;;1.90;98389.80;;;;110660;1250;41357;-65
2022/03/01 05:36:26;;;;;;;5.10;2.30;;;;;1.90;98392.40;;;;110636;1251;41927;-65
2022/03/01 05:38:55;;;;;;;6.20;2.20;;;;;1.92;98394.20;;;;110634;1251;41150;-64
2022/03/01 05:41:25;;;;;;;5.50;2.20;;;;;1.90;98394.80;;;;110922;1250;41152;-67
2022/03/01 05:43:55;;;;;;;5.50;2.40;;;;;1.92;98399.00;;;;110684;1250;41126;-65
2022/03/01 05:46:28;;;;;;;5.20;2.30;;;;;2.00;98397.00;;;;110887;1249;42431;-66
2022/03/01 05:48:58;;;;;;;5.60;2.40;;;;;2.00;98390.60;;;;110528;1252;43060;-65
2022/03/01 05:51:27;;;;;;;7.80;2.70;;;;;2.00;98394.40;;;;110779;1250;41146;-66
2022/03/01 05:53:57;;;;;;;7.50;2.50;;;;;2.02;98392.40;;;;110720;1251;41133;-66
2022/03/01 05:56:26;;;;;;;5.60;2.30;;;;;2.10;98394.60;;;;110872;1251;41686;-66
2022/03/01 05:58:55;;;;;;;5.40;2.10;;;;;2.10;98396.80;;;;110761;1249;41207;-65
2022/03/01 06:01:25;;;;;;;7.00;2.50;;;;;2.20;98392.40;;;;110727;1251;41170;-66
2022/03/01 06:03:54;;;;;;;6.50;2.30;;;;;2.30;98402.80;;;;110934;1250;42237;-67
2022/03/01 06:06:24;;;;;;;7.60;2.50;;;;;2.32;98391.20;;;;110744;1250;41155;-66
2022/03/01 06:08:54;;;;;;;6.90;2.40;;;;;2.40;98391.40;;;;110762;1250;41812;-66
2022/03/01 06:11:25;;;;;;;6.60;2.60;;;;;2.50;98386.40;;;;110605;1251;41270;-66
2022/03/01 06:13:57;;;;;;;5.10;2.20;;;;;2.48;98388.00;;;;110764;1250;42419;-66
2022/03/01 06:16:27;;;;;;;5.80;2.20;;;;;2.60;98391.40;;;;110783;1251;41154;-68
2022/03/01 06:18:56;;;;;;;7.00;2.50;;;;;2.68;98386.80;;;;110953;1250;41158;-65
2022/03/01 06:21:26;;;;;;;5.40;2.00;;;;;2.76;98385.60;;;;110759;1251;41142;-66
2022/03/01 06:23:56;;;;;;;5.70;2.10;;;;;2.80;98382.00;;;;110612;1251;41396;-66
2022/03/01 06:26:25;;;;;;;4.80;2.20;;;;;2.92;98384.40;;;;110689;1250;41144;-65
2022/03/01 06:28:55;;;;;;;7.90;2.30;;;;;3.10;98381.20;;;;110784;1250;42253;-65
2022/03/01 06:31:25;;;;;;;5.30;2.20;;;;;3.20;98379.20;;;;111032;1250;41137;-66
2022/03/01 06:33:56;;;;;;;9.90;2.70;;;;;3.40;98383.80;;;;110509;1252;41172;-66
2022/03/01 06:36:26;;;;;;;4.90;2.10;;;;;3.60;98379.60;;;;110624;1251;41622;-65
2022/03/01 06:38:55;;;;;;;5.00;2.00;;;;;3.80;98380.00;;;;110727;1251;41149;-66
2022/03/01 06:41:25;;;;;;;5.00;1.90;;;;;4.06;98373.80;;;;110858;1250;41899;-64
2022/03/01 06:43:54;;;;;;;6.80;2.30;;;;;4.30;98380.40;;;;110721;1250;42302;-66
2022/03/01 06:46:25;;;;;;;6.60;2.10;;;;;4.50;98369.40;;;;110506;1250;41530;-66
2022/03/01 06:48:56;;;;;;;5.50;2.20;;;;;4.60;98366.00;;;;110837;1251;41573;-68
2022/03/01 06:51:25;;;;;;;5.90;2.20;;;;;4.70;98362.80;;;;110903;1250;41188;-65
2022/03/01 06:53:55;;;;;;;5.20;1.90;;;;;4.90;98362.60;;;;110772;1251;41183;-65
2022/03/01 06:56:26;;;;;;;5.10;2.00;;;;;5.20;98365.60;;;;110898;1250;41273;-66
2022/03/01 06:59:00;;;;;;;4.40;1.90;;;;;5.50;98367.40;;;;110643;1251;41895;-66
2022/03/01 07:01:31;;;;;;;5.90;2.10;;;;;5.70;98370.40;;;;110763;1250;41157;-66
2022/03/01 07:04:01;;;;;;;5.60;2.00;;;;;5.90;98373.80;;;;110925;1250;42198;-67
2022/03/01 07:06:43;;;;;;;4.10;1.90;;;;;6.20;98365.20;;;;110665;1251;42132;-69
2022/03/01 07:09:23;;;;;;;4.50;1.90;;;;;6.50;98358.80;;;;110651;1250;41180;-67
2022/03/01 07:11:58;;;;;;;4.60;1.90;;;;;6.70;98360.00;;;;110832;1251;41284;-68
2022/03/01 07:14:46;;;;;;;4.60;2.00;;;;;7.00;98355.80;;;;110583;1251;41136;-67
2022/03/01 07:17:22;;;;;;;6.00;2.30;;;;;7.10;98355.80;;;;110423;1251;41282;-67
2022/03/01 07:19:57;;;;;;;5.90;2.20;;;;;7.20;98348.00;;;;110759;1251;41760;-68
2022/03/01 07:22:32;;;;;;;6.90;2.20;;;;;7.26;98345.80;;;;110689;1250;41615;-69
2022/03/01 07:25:10;;;;;;;6.20;2.00;;;;;7.00;98347.00;;;;111148;1250;41119;-68
2022/03/01 07:27:50;;;;;;;5.40;2.00;;;;;7.14;98347.20;;;;110793;1250;41154;-65
2022/03/01 07:30:27;;;;;;;4.90;2.00;;;;;7.26;98343.20;;;;110727;1252;41150;-69
2022/03/01 07:33:12;;;;;;;5.50;2.00;;;;;7.68;98346.00;;;;110920;1250;41141;-68
2022/03/01 07:35:49;;;;;;;6.80;2.10;;;;;7.62;98342.40;;;;110962;1250;42956;-64
2022/03/01 07:38:42;;;;;;;4.90;2.00;;;;;7.60;98343.80;;;;110476;1250;41628;-67
2022/03/01 07:41:20;;;;;;;4.00;1.80;;;;;7.70;98343.80;;;;110701;1250;41175;-67
2022/03/01 07:44:23;;;;;;;6.20;2.00;;;;;7.90;98341.60;;;;110743;1253;41638;-67
2022/03/01 07:47:02;;;;;;;4.70;1.90;;;;;8.08;98342.20;;;;110833;1252;41149;-68
2022/03/01 07:49:43;;;;;;;5.20;1.90;;;;;8.10;98332.80;;;;110619;1251;41996;-67
2022/03/01 07:52:24;;;;;;;7.50;2.10;;;;;8.00;98341.20;;;;110856;1250;41178;-68
2022/03/01 07:55:16;;;;;;;4.60;2.00;;;;;7.92;98335.40;;;;110709;1251;42384;-69
2022/03/01 07:57:56;;;;;;;5.10;2.10;;;;;8.00;98335.40;;;;110974;1250;41334;-68
2022/03/01 08:00:36;;;;;;;4.30;1.90;;;;;8.20;98340.00;;;;110803;1251;41619;-73
2022/03/01 08:03:16;;;;;;;5.60;2.20;;;;;8.50;98340.20;;;;110997;1250;41715;-71
2022/03/01 08:05:52;;;;;;;4.50;2.00;;;;;8.84;98338.40;;;;110842;1251;41189;-68
2022/03/01 08:08:36;;;;;;;5.20;2.00;;;;;8.94;98332.40;;;;110751;1251;41721;-67
2022/03/01 08:11:12;;;;;;;4.30;1.80;;;;;9.10;98340.60;;;;110752;1251;41156;-67
2022/03/01 08:13:59;;;;;;;4.80;1.70;;;;;8.70;98341.40;;;;110687;1252;41278;-68
2022/03/01 08:16:38;;;;;;;4.20;1.70;;;;;8.50;98343.00;;;;110567;1250;41631;-67
2022/03/01 08:19:19;;;;;;;3.50;1.50;;;;;8.40;98344.60;;;;110734;1250;41157;-72
2022/03/01 08:22:10;;;;;;;5.00;1.60;;;;;8.40;98343.00;;;;110839;1251;41160;-72
2022/03/01 08:24:55;;;;;;;3.40;1.60;;;;;8.20;98343.60;;;;110718;1252;41158;-69
2022/03/01 08:27:41;;;;;;;4.00;1.70;;;;;7.90;98339.80;;;;110911;1250;41274;-67
2022/03/01 08:30:12;;;;;;;4.20;1.80;;;;;7.90;98340.40;;;;110842;1250;41485;-72
2022/03/01 08:32:49;;;;;;;4.60;1.80;;;;;7.68;98339.40;;;;110895;1249;41140;-68
2022/03/01 08:35:25;;;;;;;4.00;1.70;;;;;7.70;98332.80;;;;110897;1250;41538;-69
2022/03/01 08:38:06;;;;;;;5.70;1.80;;;;;7.34;98331.00;;;;110707;1250;41142;-70
2022/03/01 08:40:41;;;;;;;3.60;1.70;;;;;7.38;98325.20;;;;110822;1250;42367;-70
2022/03/01 08:43:20;;;;;;;7.10;1.90;;;;;7.14;98319.40;;;;110853;1250;41547;-69
2022/03/01 08:45:59;;;;;;;4.20;1.70;;;;;7.10;98322.60;;;;110780;1250;41264;-65
2022/03/01 08:48:36;;;;;;;3.10;1.60;;;;;7.38;98318.80;;;;110830;1252;41190;-67
2022/03/01 08:51:15;;;;;;;4.90;1.60;;;;;7.30;98312.00;;;;110710;1252;41355;-69
2022/03/01 08:53:51;;;;;;;3.20;1.50;;;;;7.50;98318.20;;;;110732;1250;41146;-68
2022/03/01 08:56:38;;;;;;;5.80;1.70;;;;;7.40;98312.20;;;;110828;1251;41193;-70
2022/03/01 08:59:13;;;;;;;4.40;1.60;;;;;7.32;98308.60;;;;110747;1251;41149;-65
2022/03/01 09:01:54;;;;;;;3.60;1.60;;;;;7.10;98312.00;;;;110898;1250;41421;-66
2022/03/01 09:04:37;;;;;;;4.90;1.80;;;;;7.18;98300.20;;;;110797;1250;41262;-64
2022/03/01 09:07:12;;;;;;;5.20;1.90;;;;;6.96;98300.20;;;;110754;1250;41381;-65
2022/03/01 09:09:48;;;;;;;4.60;1.80;;;;;7.00;98296.00;;;;110880;1250;41168;-65
2022/03/01 09:12:23;;;;;;;2.90;1.60;;;;;7.00;98293.40;;;;110681;1250;41360;-65
2022/03/01 09:14:54;;;;;;;3.10;1.50;;;;;7.20;98288.80;;;;110806;1252;41264;-68
2022/03/01 09:17:33;;;;;;;2.30;1.50;;;;;7.50;98287.60;;;;110688;1252;41143;-68
2022/03/01 09:20:12;;;;;;;2.20;1.50;;;;;7.80;98290.20;;;;110648;1251;41315;-67
2022/03/01 09:22:51;;;;;;;4.10;1.60;;;;;8.00;98284.80;;;;110566;1251;41269;-69
2022/03/01 09:25:28;;;;;;;4.60;1.60;;;;;8.34;98286.20;;;;110516;1252;41155;-68
2022/03/01 09:28:03;;;;;;;4.80;1.60;;;;;8.70;98280.40;;;;110624;1251;41156;-66
2022/03/01 09:30:38;;;;;;;3.10;1.60;;;;;9.12;98280.60;;;;110848;1250;41251;-65
2022/03/01 09:33:14;;;;;;;7.50;1.70;;;;;9.58;98272.20;;;;110726;1251;41622;-65
2022/03/01 09:35:46;;;;;;;3.70;1.60;;;;;9.40;98273.40;;;;110889;1250;41255;-70
2022/03/01 09:38:26;;;;;;;2.70;1.50;;;;;9.46;98266.80;;;;110658;1250;41277;-68
2022/03/01 09:41:11;;;;;;;3.40;1.50;;;;;9.50;98266.40;;;;110868;1250;42145;-67
2022/03/01 09:43:45;;;;;;;2.20;1.30;;;;;9.62;98259.60;;;;110860;1250;42078;-68
2022/03/01 09:46:24;;;;;;;2.40;1.40;;;;;9.90;98258.60;;;;110804;1250;41459;-65
2022/03/01 09:49:05;;;;;;;3.00;1.50;;;;;10.20;98261.00;;;;110906;1250;41391;-65
2022/03/01 09:51:39;;;;;;;2.90;1.60;;;;;10.72;98254.40;;;;110730;1250;41865;-70
2022/03/01 09:54:14;;;;;;;3.20;1.40;;;;;10.88;98245.80;;;;110790;1250;41208;-70
2022/03/01 09:56:52;;;;;;;5.40;1.40;;;;;11.58;98245.20;;;;110816;1251;42003;-68
2022/03/01 09:59:34;;;;;;;5.00;1.70;;;;;12.08;98243.40;;;;110688;1250;41152;-72
2022/03/01 10:02:13;;;;;;;3.40;1.60;;;;;12.40;98243.60;;;;110572;1251;42503;-69
2022/03/01 10:04:58;;;;;;;4.10;1.60;;;;;12.34;98244.60;;;;110738;1251;41159;-69
2022/03/01 10:07:49;;;;;;;2.80;1.40;;;;;12.52;98239.00;;;;110898;1250;41257;-71
2022/03/01 10:10:40;;;;;;;4.20;1.40;;;;;12.76;98230.00;;;;110966;1251;41486;-63
2022/03/01 10:13:28;;;;;;;2.80;1.50;;;;;13.00;98226.40;;;;110812;1250;41621;-66
2022/03/01 10:16:11;;;;;;;3.80;1.60;;;;;13.60;98229.00;;;;110486;1252;41769;-67
2022/03/01 10:18:52;;;;;;;25.10;7.70;;;;;13.92;98222.80;;;;110795;1251;41483;-70
2022/03/01 10:21:33;;;;;;;9.20;2.60;;;;;14.76;98215.80;;;;110869;1250;41554;-67
2022/03/01 10:24:20;;;;;;;3.80;1.70;;;;;15.30;98214.60;;;;110579;1252;41513;-71
2022/03/01 10:27:05;;;;;;;3.80;1.70;;;;;15.70;98210.00;;;;110730;1252;41268;-66
2022/03/01 10:29:48;;;;;;;4.20;1.70;;;;;16.24;98199.00;;;;110869;1250;42184;-71
2022/03/01 10:32:28;;;;;;;4.20;1.70;;;;;16.90;98193.20;;;;111077;1250;40779;-69
2022/03/01 10:35:14;;;;;;;4.10;1.60;;;;;16.60;98190.80;;;;110740;1250;41267;-68
2022/03/01 10:37:53;;;;;;;4.60;1.70;;;;;16.40;98187.80;;;;110813;1251;41158;-69
2022/03/01 10:40:31;;;;;;;3.30;1.60;;;;;16.78;98185.60;;;;110818;1250;41933;-66
2022/03/01 10:43:05;;;;;;;4.70;1.80;;;;;17.60;98183.20;;;;110983;1250;41203;-71
2022/03/01 10:45:43;;;;;;;3.90;1.70;;;;;17.38;98181.60;;;;110964;1249;41146;-68
2022/03/01 10:48:30;;;;;;;4.10;1.60;;;;;16.74;98179.40;;;;111037;1250;41153;-66
2022/03/01 10:51:13;;;;;;;4.20;1.70;;;;;16.40;98179.80;;;;110860;1250;41204;-67
2022/03/01 10:53:52;;;;;;;6.60;1.90;;;;;16.40;98174.20;;;;111005;1250;41370;-67
2022/03/01 10:56:40;;;;;;;5.00;1.80;;;;;16.36;98173.00;;;;110799;1250;41201;-67
2022/03/01 10:59:19;;;;;;;5.00;1.90;;;;;16.30;98165.00;;;;110645;1250;41536;-65
2022/03/01 11:01:54;;;;;;;3.50;1.70;;;;;16.52;98158.20;;;;110899;1250;41142;-67
2022/03/01 11:04:33;;;;;;;8.20;2.50;;;;;16.98;98159.00;;;;110727;1250;41610;-66
2022/03/01 11:07:05;;;;;;;5.00;1.90;;;;;16.72;98160.20;;;;110860;1252;41358;-67
2022/03/01 11:09:35;;;;;;;5.20;2.00;;;;;16.20;98160.20;;;;110845;1250;43024;-66
2022/03/01 11:12:06;;;;;;;7.00;2.10;;;;;15.90;98158.40;;;;110755;1249;41152;-66
2022/03/01 11:14:46;;;;;;;5.00;1.80;;;;;15.04;98156.80;;;;110834;1251;41394;-68
2022/03/01 11:17:33;;;;;;;4.20;1.80;;;;;14.46;98163.40;;;;110679;1249;41999;-67
2022/03/01 11:20:07;;;;;;;4.40;1.80;;;;;13.70;98163.80;;;;110772;1250;42083;-67
2022/03/01 11:22:46;;;;;;;4.60;1.70;;;;;13.90;98158.60;;;;110630;1253;41273;-67
2022/03/01 11:25:18;;;;;;;4.80;1.80;;;;;14.08;98152.40;;;;110731;1250;42191;-67
2022/03/01 11:27:52;;;;;;;7.80;2.20;;;;;14.00;98153.60;;;;110805;1251;41716;-67
2022/03/01 11:30:27;;;;;;;6.40;2.10;;;;;14.10;98152.80;;;;110836;1250;41188;-68
2022/03/01 11:32:57;;;;;;;6.80;2.00;;;;;14.08;98151.00;;;;110851;1250;41215;-68
2022/03/01 11:35:32;;;;;;;4.80;2.00;;;;;14.34;98145.60;;;;110828;1250;41153;-68
2022/03/01 11:38:06;;;;;;;4.40;1.90;;;;;14.58;98141.60;;;;110614;1253;42140;-67
2022/03/01 11:40:46;;;;;;;4.00;1.80;;;;;14.02;98144.40;;;;110627;1251;41547;-66
2022/03/01 11:43:36;;;;;;;4.30;1.80;;;;;13.74;98144.80;;;;110777;1251;41155;-67
2022/03/01 11:46:20;;;;;;;5.30;2.20;;;;;13.30;98146.80;;;;110845;1252;41136;-67
2022/03/01 11:48:57;;;;;;;5.00;2.00;;;;;12.54;98146.80;;;;110718;1250;41610;-68
2022/03/01 11:51:34;;;;;;;6.30;2.00;;;;;12.54;98145.40;;;;110721;1250;41259;-68
2022/03/01 11:54:06;;;;;;;6.90;2.10;;;;;12.50;98142.80;;;;110824;1250;41594;-67
2022/03/01 11:56:36;;;;;;;5.90;2.10;;;;;12.40;98135.80;;;;110616;1252;41689;-67
2022/03/01 11:59:08;;;;;;;5.40;2.20;;;;;12.36;98134.40;;;;110600;1253;41678;-67
2022/03/01 12:01:38;;;;;;;5.00;1.90;;;;;11.46;98128.00;;;;110660;1252;41184;-66
2022/03/01 12:04:08;;;;;;;3.90;2.00;;;;;11.60;98128.20;;;;110628;1253;41265;-67
2022/03/01 12:06:39;;;;;;;4.80;2.10;;;;;11.48;98122.00;;;;110580;1252;41723;-66
2022/03/01 12:09:10;;;;;;;;;;;;;10.84;98125.80;;;;110588;1252;41605;-67
2022/03/01 12:11:47;;;;;;;5.30;2.00;;;;;10.58;98125.60;;;;110543;1252;41262;-68
2022/03/01 12:14:18;;;;;;;4.90;1.90;;;;;9.96;98123.40;;;;110583;1254;41164;-69
2022/03/01 12:16:47;;;;;;;;;;;;;10.00;98125.00;;;;110764;1252;41158;-68
2022/03/01 12:19:19;;;;;;;5.10;2.00;;;;;10.10;98119.60;;;;110742;1252;42354;-67
2022/03/01 12:21:53;;;;;;;6.60;1.90;;;;;9.76;98118.00;;;;110700;1252;41179;-67
2022/03/01 12:24:25;;;;;;;5.30;2.00;;;;;9.64;98114.40;;;;110736;1252;41260;-66
2022/03/01 12:26:56;;;;;;;3.70;1.70;;;;;9.50;98109.20;;;;110526;1252;42390;-66
2022/03/01 12:29:30;;;;;;;5.90;2.00;;;;;9.60;98107.40;;;;110561;1254;41916;-67
2022/03/01 12:32:01;;;;;;;7.70;2.00;;;;;9.48;98103.00;;;;110631;1251;41606;-67
2022/03/01 12:34:32;;;;;;;6.60;2.20;;;;;9.40;98103.80;;;;110472;1254;41166;-67
2022/03/01 12:37:06;;;;;;;5.60;2.00;;;;;9.16;98101.00;;;;110685;1253;41267;-70
2022/03/01 12:39:37;;;;;;;3.30;1.70;;;;;8.96;98099.80;;;;110562;1252;41397;-68
2022/03/01 12:42:07;;;;;;;4.60;1.90;;;;;8.90;98100.20;;;;110717;1252;41158;-67
2022/03/01 12:44:36;;;;;;;4.80;1.90;;;;;8.90;98097.20;;;;110607;1252;41133;-66
2022/03/01 12:47:08;;;;;;;5.10;2.10;;;;;9.00;98095.80;;;;110564;1252;41145;-66
2022/03/01 12:49:38;;;;;;;4.80;1.80;;;;;9.10;98092.80;;;;110569;1252;41183;-65
2022/03/01 12:52:08;;;;;;;4.40;1.90;;;;;8.78;98087.80;;;;110549;1252;41153;-66